sensor_id;sensor_type;location;lat;lon;timestamp;P1;durP1;ratioP1;P2;durP2;ratioP2
33347;SDS011;19707;51.158;17.124;2023-05-24T00:00:14;18.80;;;14.60;;
33347;SDS011;19707;51.158;17.124;2023-05-24T00:03:37;20.40;;;15.20;;
33347;SDS011;19707;51.158;17.124;2023-05-24T00:06:40;23.00;;;14.90;;
33347;SDS011;19707;51.158;17.124;2023-05-24T00:09:43;18.20;;;13.90;;
33347;SDS011;19707;51.158;17.124;2023-05-24T00:12:45;16.20;;;14.20;;
33347;SDS011;19707;51.158;17.124;2023-05-24T00:15:47;18.10;;;14.60;;
33347;SDS011;19707;51.158;17.124;2023-05-24T00:18:50;17.20;;;13.50;;
33347;SDS011;19707;51.158;17.124;2023-05-24T00:21:53;19.70;;;13.50;;
33347;SDS011;19707;51.158;17.124;2023-05-24T00:24:56;14.60;;;12.80;;
33347;SDS011;19707;51.158;17.124;2023-05-24T00:27:58;19.80;;;14.10;;
33347;SDS011;19707;51.158;17.124;2023-05-24T00:31:00;16.40;;;14.40;;
33347;SDS011;19707;51.158;17.124;2023-05-24T00:34:03;19.40;;;14.80;;
33347;SDS011;19707;51.158;17.124;2023-05-24T00:37:05;20.30;;;15.80;;
33347;SDS011;19707;51.158;17.124;2023-05-24T00:40:08;22.20;;;16.00;;
33347;SDS011;19707;51.158;17.124;2023-05-24T00:43:10;23.00;;;16.20;;
33347;SDS011;19707;51.158;17.124;2023-05-24T00:49:18;24.10;;;17.30;;
33347;SDS011;19707;51.158;17.124;2023-05-24T00:52:20;28.40;;;17.70;;
33347;SDS011;19707;51.158;17.124;2023-05-24T00:55:22;20.70;;;16.90;;
33347;SDS011;19707;51.158;17.124;2023-05-24T00:58:25;21.20;;;17.60;;
33347;SDS011;19707;51.158;17.124;2023-05-24T01:01:32;26.20;;;19.30;;
33347;SDS011;19707;51.158;17.124;2023-05-24T01:04:34;23.70;;;19.30;;
33347;SDS011;19707;51.158;17.124;2023-05-24T01:10:58;25.50;;;20.00;;
33347;SDS011;19707;51.158;17.124;2023-05-24T01:18:15;22.20;;;16.30;;
33347;SDS011;19707;51.158;17.124;2023-05-24T01:25:02;2.60;;;2.40;;
33347;SDS011;19707;51.158;17.124;2023-05-24T01:28:08;1.90;;;1.80;;
33347;SDS011;19707;51.158;17.124;2023-05-24T01:31:12;1.90;;;1.40;;
33347;SDS011;19707;51.158;17.124;2023-05-24T01:34:15;1.30;;;1.30;;
33347;SDS011;19707;51.158;17.124;2023-05-24T01:37:17;1.10;;;1.10;;
33347;SDS011;19707;51.158;17.124;2023-05-24T01:40:20;2.90;;;1.10;;
33347;SDS011;19707;51.158;17.124;2023-05-24T01:43:26;1.30;;;1.20;;
33347;SDS011;19707;51.158;17.124;2023-05-24T01:47:00;1.80;;;1.10;;
33347;SDS011;19707;51.158;17.124;2023-05-24T01:50:19;2.50;;;1.80;;
33347;SDS011;19707;51.158;17.124;2023-05-24T01:53:31;1.40;;;1.30;;
33347;SDS011;19707;51.158;17.124;2023-05-24T01:56:37;2.10;;;1.70;;
33347;SDS011;19707;51.158;17.124;2023-05-24T01:59:40;3.30;;;2.50;;
33347;SDS011;19707;51.158;17.124;2023-05-24T02:02:44;2.70;;;2.40;;
33347;SDS011;19707;51.158;17.124;2023-05-24T02:05:47;2.90;;;2.60;;
33347;SDS011;19707;51.158;17.124;2023-05-24T02:08:50;1.80;;;1.70;;
33347;SDS011;19707;51.158;17.124;2023-05-24T02:11:54;3.00;;;1.70;;
33347;SDS011;19707;51.158;17.124;2023-05-24T02:14:56;4.00;;;2.50;;
33347;SDS011;19707;51.158;17.124;2023-05-24T02:17:59;8.10;;;3.50;;
33347;SDS011;19707;51.158;17.124;2023-05-24T02:21:02;6.60;;;3.20;;
33347;SDS011;19707;51.158;17.124;2023-05-24T02:24:04;6.00;;;3.30;;
33347;SDS011;19707;51.158;17.124;2023-05-24T02:27:08;6.70;;;3.50;;
33347;SDS011;19707;51.158;17.124;2023-05-24T02:30:11;4.90;;;2.80;;
33347;SDS011;19707;51.158;17.124;2023-05-24T02:33:14;6.60;;;3.40;;
33347;SDS011;19707;51.158;17.124;2023-05-24T02:36:17;8.10;;;3.10;;
33347;SDS011;19707;51.158;17.124;2023-05-24T02:39:19;9.70;;;3.30;;
33347;SDS011;19707;51.158;17.124;2023-05-24T02:42:21;7.20;;;2.90;;
33347;SDS011;19707;51.158;17.124;2023-05-24T02:45:24;5.60;;;2.90;;
33347;SDS011;19707;51.158;17.124;2023-05-24T02:48:26;5.60;;;2.80;;
33347;SDS011;19707;51.158;17.124;2023-05-24T02:51:29;4.10;;;2.90;;
33347;SDS011;19707;51.158;17.124;2023-05-24T02:54:31;5.10;;;2.30;;
33347;SDS011;19707;51.158;17.124;2023-05-24T02:57:33;3.50;;;2.20;;
33347;SDS011;19707;51.158;17.124;2023-05-24T03:00:36;6.70;;;2.50;;
33347;SDS011;19707;51.158;17.124;2023-05-24T03:03:39;4.10;;;2.20;;
33347;SDS011;19707;51.158;17.124;2023-05-24T03:06:42;7.80;;;2.30;;
33347;SDS011;19707;51.158;17.124;2023-05-24T03:09:44;5.80;;;2.90;;
33347;SDS011;19707;51.158;17.124;2023-05-24T03:12:46;6.80;;;3.20;;
33347;SDS011;19707;51.158;17.124;2023-05-24T03:15:48;5.60;;;2.90;;
33347;SDS011;19707;51.158;17.124;2023-05-24T03:18:51;5.40;;;2.40;;
33347;SDS011;19707;51.158;17.124;2023-05-24T03:21:56;5.60;;;3.30;;
33347;SDS011;19707;51.158;17.124;2023-05-24T03:24:58;3.80;;;2.40;;
33347;SDS011;19707;51.158;17.124;2023-05-24T03:28:01;5.60;;;3.10;;
33347;SDS011;19707;51.158;17.124;2023-05-24T03:31:06;5.00;;;2.50;;
33347;SDS011;19707;51.158;17.124;2023-05-24T03:34:08;4.10;;;2.30;;
33347;SDS011;19707;51.158;17.124;2023-05-24T03:37:10;7.50;;;2.60;;
33347;SDS011;19707;51.158;17.124;2023-05-24T03:40:13;4.40;;;2.50;;
33347;SDS011;19707;51.158;17.124;2023-05-24T03:43:15;5.90;;;2.90;;
33347;SDS011;19707;51.158;17.124;2023-05-24T03:46:18;4.20;;;3.10;;
33347;SDS011;19707;51.158;17.124;2023-05-24T03:49:20;3.60;;;3.30;;
33347;SDS011;19707;51.158;17.124;2023-05-24T03:52:23;5.60;;;4.20;;
33347;SDS011;19707;51.158;17.124;2023-05-24T03:55:26;7.10;;;3.70;;
33347;SDS011;19707;51.158;17.124;2023-05-24T03:58:28;6.50;;;3.50;;
33347;SDS011;19707;51.158;17.124;2023-05-24T04:01:30;5.10;;;3.40;;
33347;SDS011;19707;51.158;17.124;2023-05-24T04:04:32;7.10;;;3.90;;
33347;SDS011;19707;51.158;17.124;2023-05-24T04:07:35;5.50;;;3.30;;
33347;SDS011;19707;51.158;17.124;2023-05-24T04:10:38;7.20;;;3.60;;
33347;SDS011;19707;51.158;17.124;2023-05-24T04:13:40;5.30;;;3.80;;
33347;SDS011;19707;51.158;17.124;2023-05-24T04:16:42;8.10;;;3.90;;
33347;SDS011;19707;51.158;17.124;2023-05-24T04:19:45;6.10;;;3.90;;
33347;SDS011;19707;51.158;17.124;2023-05-24T04:22:48;7.30;;;4.10;;
33347;SDS011;19707;51.158;17.124;2023-05-24T04:25:50;4.20;;;3.80;;
33347;SDS011;19707;51.158;17.124;2023-05-24T04:28:53;8.30;;;4.20;;
33347;SDS011;19707;51.158;17.124;2023-05-24T04:31:55;6.50;;;3.90;;
33347;SDS011;19707;51.158;17.124;2023-05-24T04:34:57;5.20;;;3.60;;
33347;SDS011;19707;51.158;17.124;2023-05-24T04:38:00;6.80;;;4.10;;
33347;SDS011;19707;51.158;17.124;2023-05-24T04:41:02;6.20;;;4.10;;
33347;SDS011;19707;51.158;17.124;2023-05-24T04:44:05;6.80;;;4.60;;
33347;SDS011;19707;51.158;17.124;2023-05-24T04:47:08;7.30;;;4.80;;
33347;SDS011;19707;51.158;17.124;2023-05-24T04:50:14;7.00;;;4.60;;
33347;SDS011;19707;51.158;17.124;2023-05-24T04:53:17;4.60;;;4.20;;
33347;SDS011;19707;51.158;17.124;2023-05-24T04:56:23;7.50;;;4.70;;
33347;SDS011;19707;51.158;17.124;2023-05-24T04:59:25;7.00;;;4.70;;
33347;SDS011;19707;51.158;17.124;2023-05-24T05:02:27;4.50;;;4.10;;
33347;SDS011;19707;51.158;17.124;2023-05-24T05:05:30;7.40;;;4.50;;
33347;SDS011;19707;51.158;17.124;2023-05-24T05:08:32;8.20;;;4.30;;
33347;SDS011;19707;51.158;17.124;2023-05-24T05:11:35;8.10;;;4.60;;
33347;SDS011;19707;51.158;17.124;2023-05-24T05:14:37;7.80;;;4.60;;
33347;SDS011;19707;51.158;17.124;2023-05-24T05:17:40;7.60;;;4.90;;
33347;SDS011;19707;51.158;17.124;2023-05-24T05:20:42;8.60;;;5.00;;
33347;SDS011;19707;51.158;17.124;2023-05-24T05:23:44;9.80;;;5.60;;
33347;SDS011;19707;51.158;17.124;2023-05-24T05:26:47;8.50;;;5.60;;
33347;SDS011;19707;51.158;17.124;2023-05-24T05:29:49;9.60;;;5.80;;
33347;SDS011;19707;51.158;17.124;2023-05-24T05:32:52;15.20;;;6.30;;
33347;SDS011;19707;51.158;17.124;2023-05-24T05:35:54;10.10;;;6.50;;
33347;SDS011;19707;51.158;17.124;2023-05-24T05:38:56;11.50;;;5.80;;
33347;SDS011;19707;51.158;17.124;2023-05-24T05:41:59;8.90;;;5.80;;
33347;SDS011;19707;51.158;17.124;2023-05-24T05:45:03;12.10;;;5.20;;
33347;SDS011;19707;51.158;17.124;2023-05-24T05:48:05;12.90;;;5.70;;
33347;SDS011;19707;51.158;17.124;2023-05-24T05:51:08;10.80;;;5.90;;
33347;SDS011;19707;51.158;17.124;2023-05-24T05:54:10;14.30;;;6.00;;
33347;SDS011;19707;51.158;17.124;2023-05-24T05:57:16;14.90;;;5.60;;
33347;SDS011;19707;51.158;17.124;2023-05-24T06:00:21;14.30;;;6.20;;
33347;SDS011;19707;51.158;17.124;2023-05-24T06:03:24;12.30;;;5.40;;
33347;SDS011;19707;51.158;17.124;2023-05-24T06:06:26;10.90;;;4.60;;
33347;SDS011;19707;51.158;17.124;2023-05-24T06:09:28;13.20;;;4.70;;
33347;SDS011;19707;51.158;17.124;2023-05-24T06:12:31;13.80;;;5.00;;
33347;SDS011;19707;51.158;17.124;2023-05-24T06:15:33;10.90;;;4.60;;
33347;SDS011;19707;51.158;17.124;2023-05-24T06:18:36;15.80;;;5.80;;
33347;SDS011;19707;51.158;17.124;2023-05-24T06:21:38;12.70;;;4.40;;
33347;SDS011;19707;51.158;17.124;2023-05-24T06:24:48;11.10;;;4.70;;
33347;SDS011;19707;51.158;17.124;2023-05-24T06:27:50;14.00;;;4.40;;
33347;SDS011;19707;51.158;17.124;2023-05-24T06:30:52;12.00;;;4.50;;
33347;SDS011;19707;51.158;17.124;2023-05-24T06:33:55;17.50;;;5.00;;
33347;SDS011;19707;51.158;17.124;2023-05-24T06:36:57;12.40;;;4.70;;
33347;SDS011;19707;51.158;17.124;2023-05-24T06:40:00;17.50;;;4.60;;
33347;SDS011;19707;51.158;17.124;2023-05-24T06:43:03;15.10;;;4.90;;
33347;SDS011;19707;51.158;17.124;2023-05-24T06:46:05;12.80;;;3.90;;
33347;SDS011;19707;51.158;17.124;2023-05-24T06:49:08;21.10;;;5.40;;
33347;SDS011;19707;51.158;17.124;2023-05-24T06:52:10;19.90;;;4.50;;
33347;SDS011;19707;51.158;17.124;2023-05-24T06:55:12;16.10;;;4.80;;
33347;SDS011;19707;51.158;17.124;2023-05-24T06:58:15;16.70;;;4.30;;
33347;SDS011;19707;51.158;17.124;2023-05-24T07:01:18;11.90;;;4.10;;
33347;SDS011;19707;51.158;17.124;2023-05-24T07:04:20;14.20;;;4.20;;
33347;SDS011;19707;51.158;17.124;2023-05-24T07:07:23;19.10;;;4.60;;
33347;SDS011;19707;51.158;17.124;2023-05-24T07:10:25;12.30;;;4.60;;
33347;SDS011;19707;51.158;17.124;2023-05-24T07:13:28;17.40;;;4.90;;
33347;SDS011;19707;51.158;17.124;2023-05-24T07:16:30;15.10;;;4.20;;
33347;SDS011;19707;51.158;17.124;2023-05-24T07:19:32;15.20;;;4.30;;
33347;SDS011;19707;51.158;17.124;2023-05-24T07:22:36;18.60;;;5.00;;
33347;SDS011;19707;51.158;17.124;2023-05-24T07:25:39;16.60;;;4.80;;
33347;SDS011;19707;51.158;17.124;2023-05-24T07:28:41;19.70;;;5.70;;
33347;SDS011;19707;51.158;17.124;2023-05-24T07:31:43;11.20;;;4.80;;
33347;SDS011;19707;51.158;17.124;2023-05-24T07:34:46;14.80;;;4.10;;
33347;SDS011;19707;51.158;17.124;2023-05-24T07:37:48;10.50;;;5.10;;
33347;SDS011;19707;51.158;17.124;2023-05-24T07:40:50;12.20;;;3.70;;
33347;SDS011;19707;51.158;17.124;2023-05-24T07:43:54;13.80;;;4.30;;
33347;SDS011;19707;51.158;17.124;2023-05-24T07:46:56;10.90;;;4.50;;
33347;SDS011;19707;51.158;17.124;2023-05-24T07:49:59;9.00;;;4.40;;
33347;SDS011;19707;51.158;17.124;2023-05-24T07:53:02;15.50;;;5.50;;
33347;SDS011;19707;51.158;17.124;2023-05-24T07:56:06;15.70;;;5.70;;
33347;SDS011;19707;51.158;17.124;2023-05-24T07:59:08;14.20;;;4.50;;
33347;SDS011;19707;51.158;17.124;2023-05-24T08:02:11;19.60;;;6.10;;
33347;SDS011;19707;51.158;17.124;2023-05-24T08:05:15;14.60;;;4.70;;
33347;SDS011;19707;51.158;17.124;2023-05-24T08:08:18;15.70;;;5.00;;
33347;SDS011;19707;51.158;17.124;2023-05-24T08:11:21;17.60;;;5.60;;
33347;SDS011;19707;51.158;17.124;2023-05-24T08:14:24;20.50;;;5.40;;
33347;SDS011;19707;51.158;17.124;2023-05-24T08:17:26;17.60;;;4.60;;
33347;SDS011;19707;51.158;17.124;2023-05-24T08:20:29;14.20;;;5.40;;
33347;SDS011;19707;51.158;17.124;2023-05-24T08:23:32;14.50;;;5.70;;
33347;SDS011;19707;51.158;17.124;2023-05-24T08:26:35;16.10;;;5.90;;
33347;SDS011;19707;51.158;17.124;2023-05-24T08:29:38;15.20;;;5.30;;
33347;SDS011;19707;51.158;17.124;2023-05-24T08:32:40;12.90;;;5.30;;
33347;SDS011;19707;51.158;17.124;2023-05-24T08:35:43;16.50;;;5.80;;
33347;SDS011;19707;51.158;17.124;2023-05-24T08:38:46;12.50;;;5.20;;
33347;SDS011;19707;51.158;17.124;2023-05-24T08:41:48;18.30;;;5.50;;
33347;SDS011;19707;51.158;17.124;2023-05-24T08:44:52;17.90;;;6.50;;
33347;SDS011;19707;51.158;17.124;2023-05-24T08:48:00;15.40;;;5.10;;
33347;SDS011;19707;51.158;17.124;2023-05-24T08:51:03;15.20;;;5.40;;
33347;SDS011;19707;51.158;17.124;2023-05-24T08:54:06;17.70;;;6.20;;
33347;SDS011;19707;51.158;17.124;2023-05-24T08:57:08;13.00;;;4.70;;
33347;SDS011;19707;51.158;17.124;2023-05-24T09:00:12;13.40;;;4.90;;
33347;SDS011;19707;51.158;17.124;2023-05-24T09:03:16;11.40;;;4.40;;
33347;SDS011;19707;51.158;17.124;2023-05-24T09:06:18;10.40;;;5.00;;
33347;SDS011;19707;51.158;17.124;2023-05-24T09:09:21;13.80;;;4.90;;
33347;SDS011;19707;51.158;17.124;2023-05-24T09:12:28;11.70;;;4.70;;
33347;SDS011;19707;51.158;17.124;2023-05-24T09:15:33;11.60;;;4.50;;
33347;SDS011;19707;51.158;17.124;2023-05-24T09:18:36;10.70;;;4.80;;
33347;SDS011;19707;51.158;17.124;2023-05-24T09:21:39;13.20;;;5.40;;
33347;SDS011;19707;51.158;17.124;2023-05-24T09:24:42;12.50;;;5.60;;
33347;SDS011;19707;51.158;17.124;2023-05-24T09:27:49;11.20;;;5.10;;
33347;SDS011;19707;51.158;17.124;2023-05-24T09:31:01;13.50;;;4.50;;
33347;SDS011;19707;51.158;17.124;2023-05-24T09:34:08;12.00;;;3.90;;
33347;SDS011;19707;51.158;17.124;2023-05-24T09:37:16;15.60;;;5.00;;
33347;SDS011;19707;51.158;17.124;2023-05-24T09:40:19;12.10;;;4.70;;
33347;SDS011;19707;51.158;17.124;2023-05-24T09:43:23;11.20;;;4.50;;
33347;SDS011;19707;51.158;17.124;2023-05-24T09:46:26;9.90;;;4.70;;
33347;SDS011;19707;51.158;17.124;2023-05-24T09:49:30;13.80;;;4.40;;
33347;SDS011;19707;51.158;17.124;2023-05-24T09:52:36;11.90;;;5.00;;
33347;SDS011;19707;51.158;17.124;2023-05-24T09:55:39;14.70;;;5.40;;
33347;SDS011;19707;51.158;17.124;2023-05-24T09:58:42;13.40;;;4.90;;
33347;SDS011;19707;51.158;17.124;2023-05-24T10:01:46;14.50;;;5.60;;
33347;SDS011;19707;51.158;17.124;2023-05-24T10:05:00;13.70;;;5.00;;
33347;SDS011;19707;51.158;17.124;2023-05-24T10:08:04;9.80;;;4.60;;
33347;SDS011;19707;51.158;17.124;2023-05-24T10:11:06;13.90;;;5.20;;
33347;SDS011;19707;51.158;17.124;2023-05-24T10:14:10;13.70;;;4.90;;
33347;SDS011;19707;51.158;17.124;2023-05-24T10:17:13;12.30;;;4.90;;
33347;SDS011;19707;51.158;17.124;2023-05-24T10:20:15;9.50;;;4.30;;
33347;SDS011;19707;51.158;17.124;2023-05-24T10:23:21;11.30;;;4.30;;
33347;SDS011;19707;51.158;17.124;2023-05-24T10:26:24;10.20;;;3.90;;
33347;SDS011;19707;51.158;17.124;2023-05-24T10:29:43;8.00;;;3.70;;
33347;SDS011;19707;51.158;17.124;2023-05-24T10:33:08;10.10;;;4.70;;
33347;SDS011;19707;51.158;17.124;2023-05-24T10:36:13;10.40;;;4.30;;
33347;SDS011;19707;51.158;17.124;2023-05-24T10:39:18;8.40;;;3.90;;
33347;SDS011;19707;51.158;17.124;2023-05-24T10:42:22;10.90;;;4.10;;
33347;SDS011;19707;51.158;17.124;2023-05-24T10:45:29;13.10;;;4.30;;
33347;SDS011;19707;51.158;17.124;2023-05-24T10:48:33;15.70;;;4.60;;
33347;SDS011;19707;51.158;17.124;2023-05-24T10:51:38;13.50;;;4.50;;
33347;SDS011;19707;51.158;17.124;2023-05-24T10:54:45;11.40;;;4.20;;
33347;SDS011;19707;51.158;17.124;2023-05-24T10:58:06;11.00;;;3.80;;
33347;SDS011;19707;51.158;17.124;2023-05-24T11:01:27;13.20;;;4.40;;
33347;SDS011;19707;51.158;17.124;2023-05-24T11:04:31;8.80;;;4.00;;
33347;SDS011;19707;51.158;17.124;2023-05-24T11:07:39;12.30;;;5.10;;
33347;SDS011;19707;51.158;17.124;2023-05-24T11:10:44;15.40;;;4.70;;
33347;SDS011;19707;51.158;17.124;2023-05-24T11:13:47;13.50;;;4.60;;
33347;SDS011;19707;51.158;17.124;2023-05-24T11:16:49;15.50;;;4.90;;
33347;SDS011;19707;51.158;17.124;2023-05-24T11:19:55;12.60;;;4.90;;
33347;SDS011;19707;51.158;17.124;2023-05-24T11:22:57;13.50;;;4.80;;
33347;SDS011;19707;51.158;17.124;2023-05-24T11:26:01;15.80;;;5.30;;
33347;SDS011;19707;51.158;17.124;2023-05-24T11:29:05;9.90;;;4.50;;
33347;SDS011;19707;51.158;17.124;2023-05-24T11:32:08;13.80;;;4.20;;
33347;SDS011;19707;51.158;17.124;2023-05-24T11:35:10;13.50;;;4.10;;
33347;SDS011;19707;51.158;17.124;2023-05-24T11:38:13;16.10;;;4.60;;
33347;SDS011;19707;51.158;17.124;2023-05-24T11:41:16;14.90;;;4.30;;
33347;SDS011;19707;51.158;17.124;2023-05-24T11:44:18;12.30;;;5.10;;
33347;SDS011;19707;51.158;17.124;2023-05-24T11:47:21;13.90;;;4.60;;
33347;SDS011;19707;51.158;17.124;2023-05-24T11:50:24;9.80;;;4.00;;
33347;SDS011;19707;51.158;17.124;2023-05-24T11:53:27;10.80;;;4.20;;
33347;SDS011;19707;51.158;17.124;2023-05-24T11:56:29;12.50;;;3.80;;
33347;SDS011;19707;51.158;17.124;2023-05-24T11:59:32;10.70;;;4.00;;
33347;SDS011;19707;51.158;17.124;2023-05-24T12:02:38;14.70;;;4.80;;
33347;SDS011;19707;51.158;17.124;2023-05-24T12:05:40;11.20;;;4.40;;
33347;SDS011;19707;51.158;17.124;2023-05-24T12:08:44;10.40;;;4.70;;
33347;SDS011;19707;51.158;17.124;2023-05-24T12:11:47;14.20;;;3.90;;
33347;SDS011;19707;51.158;17.124;2023-05-24T12:14:51;7.70;;;3.40;;
33347;SDS011;19707;51.158;17.124;2023-05-24T12:17:57;11.00;;;4.20;;
33347;SDS011;19707;51.158;17.124;2023-05-24T12:20:59;12.20;;;3.90;;
33347;SDS011;19707;51.158;17.124;2023-05-24T12:24:12;10.90;;;4.70;;
33347;SDS011;19707;51.158;17.124;2023-05-24T12:27:15;9.80;;;4.00;;
33347;SDS011;19707;51.158;17.124;2023-05-24T12:30:20;12.20;;;3.90;;
33347;SDS011;19707;51.158;17.124;2023-05-24T12:33:27;17.70;;;5.30;;
33347;SDS011;19707;51.158;17.124;2023-05-24T12:36:28;11.60;;;3.90;;
33347;SDS011;19707;51.158;17.124;2023-05-24T12:39:30;10.40;;;3.90;;
33347;SDS011;19707;51.158;17.124;2023-05-24T12:42:35;10.30;;;4.40;;
33347;SDS011;19707;51.158;17.124;2023-05-24T12:45:37;8.80;;;3.20;;
33347;SDS011;19707;51.158;17.124;2023-05-24T12:48:40;7.60;;;3.60;;
33347;SDS011;19707;51.158;17.124;2023-05-24T12:51:43;9.40;;;4.10;;
33347;SDS011;19707;51.158;17.124;2023-05-24T12:54:45;8.90;;;3.70;;
33347;SDS011;19707;51.158;17.124;2023-05-24T12:57:47;9.90;;;3.70;;
33347;SDS011;19707;51.158;17.124;2023-05-24T13:00:54;10.40;;;4.20;;
33347;SDS011;19707;51.158;17.124;2023-05-24T13:03:56;16.50;;;3.80;;
33347;SDS011;19707;51.158;17.124;2023-05-24T13:07:00;8.70;;;4.00;;
33347;SDS011;19707;51.158;17.124;2023-05-24T13:10:03;11.20;;;3.60;;
33347;SDS011;19707;51.158;17.124;2023-05-24T13:13:07;9.30;;;4.30;;
33347;SDS011;19707;51.158;17.124;2023-05-24T13:16:09;8.90;;;3.10;;
33347;SDS011;19707;51.158;17.124;2023-05-24T13:19:11;13.00;;;4.50;;
33347;SDS011;19707;51.158;17.124;2023-05-24T13:22:13;13.00;;;4.10;;
33347;SDS011;19707;51.158;17.124;2023-05-24T13:25:16;9.60;;;4.20;;
33347;SDS011;19707;51.158;17.124;2023-05-24T13:28:18;11.10;;;4.10;;
33347;SDS011;19707;51.158;17.124;2023-05-24T13:31:21;15.40;;;3.90;;
33347;SDS011;19707;51.158;17.124;2023-05-24T13:34:23;8.80;;;3.40;;
33347;SDS011;19707;51.158;17.124;2023-05-24T13:37:28;10.70;;;3.60;;
33347;SDS011;19707;51.158;17.124;2023-05-24T13:40:30;9.80;;;3.90;;
33347;SDS011;19707;51.158;17.124;2023-05-24T13:43:32;11.50;;;3.70;;
33347;SDS011;19707;51.158;17.124;2023-05-24T13:46:35;7.60;;;3.00;;
33347;SDS011;19707;51.158;17.124;2023-05-24T13:49:37;12.50;;;3.90;;
33347;SDS011;19707;51.158;17.124;2023-05-24T13:52:39;11.50;;;4.20;;
33347;SDS011;19707;51.158;17.124;2023-05-24T13:55:41;10.60;;;4.30;;
33347;SDS011;19707;51.158;17.124;2023-05-24T13:58:44;12.20;;;3.90;;
33347;SDS011;19707;51.158;17.124;2023-05-24T14:01:46;8.90;;;4.10;;
33347;SDS011;19707;51.158;17.124;2023-05-24T14:04:49;9.00;;;3.60;;
33347;SDS011;19707;51.158;17.124;2023-05-24T14:07:51;12.10;;;3.60;;
33347;SDS011;19707;51.158;17.124;2023-05-24T14:10:53;12.50;;;3.90;;
33347;SDS011;19707;51.158;17.124;2023-05-24T14:13:55;9.20;;;3.50;;
33347;SDS011;19707;51.158;17.124;2023-05-24T14:16:57;8.30;;;3.20;;
33347;SDS011;19707;51.158;17.124;2023-05-24T14:19:59;6.10;;;3.10;;
33347;SDS011;19707;51.158;17.124;2023-05-24T14:23:02;7.40;;;2.90;;
33347;SDS011;19707;51.158;17.124;2023-05-24T14:26:04;13.00;;;3.50;;
33347;SDS011;19707;51.158;17.124;2023-05-24T14:29:07;11.70;;;3.50;;
33347;SDS011;19707;51.158;17.124;2023-05-24T14:32:09;7.00;;;3.50;;
33347;SDS011;19707;51.158;17.124;2023-05-24T14:35:11;9.30;;;3.70;;
33347;SDS011;19707;51.158;17.124;2023-05-24T14:38:13;8.80;;;3.30;;
33347;SDS011;19707;51.158;17.124;2023-05-24T14:41:16;11.10;;;3.40;;
33347;SDS011;19707;51.158;17.124;2023-05-24T14:44:18;7.90;;;3.10;;
33347;SDS011;19707;51.158;17.124;2023-05-24T14:47:20;10.20;;;4.10;;
33347;SDS011;19707;51.158;17.124;2023-05-24T14:50:22;6.80;;;3.60;;
33347;SDS011;19707;51.158;17.124;2023-05-24T14:53:24;7.40;;;3.70;;
33347;SDS011;19707;51.158;17.124;2023-05-24T14:56:26;9.90;;;3.40;;
33347;SDS011;19707;51.158;17.124;2023-05-24T14:59:28;7.50;;;3.30;;
33347;SDS011;19707;51.158;17.124;2023-05-24T15:02:30;7.60;;;2.80;;
33347;SDS011;19707;51.158;17.124;2023-05-24T15:05:35;7.80;;;3.40;;
33347;SDS011;19707;51.158;17.124;2023-05-24T15:08:37;8.90;;;3.40;;
33347;SDS011;19707;51.158;17.124;2023-05-24T15:11:39;9.30;;;3.50;;
33347;SDS011;19707;51.158;17.124;2023-05-24T15:14:42;10.10;;;4.50;;
33347;SDS011;19707;51.158;17.124;2023-05-24T15:17:44;9.00;;;3.50;;
33347;SDS011;19707;51.158;17.124;2023-05-24T15:20:47;9.30;;;3.60;;
33347;SDS011;19707;51.158;17.124;2023-05-24T15:23:49;9.50;;;3.20;;
33347;SDS011;19707;51.158;17.124;2023-05-24T15:26:51;6.40;;;3.30;;
33347;SDS011;19707;51.158;17.124;2023-05-24T15:29:54;8.80;;;3.10;;
33347;SDS011;19707;51.158;17.124;2023-05-24T15:33:02;11.10;;;2.80;;
33347;SDS011;19707;51.158;17.124;2023-05-24T15:39:07;6.30;;;3.00;;
33347;SDS011;19707;51.158;17.124;2023-05-24T15:42:09;3.70;;;2.60;;
33347;SDS011;19707;51.158;17.124;2023-05-24T15:45:17;7.40;;;3.20;;
33347;SDS011;19707;51.158;17.124;2023-05-24T15:48:20;8.10;;;3.30;;
33347;SDS011;19707;51.158;17.124;2023-05-24T15:51:23;8.20;;;2.60;;
33347;SDS011;19707;51.158;17.124;2023-05-24T15:54:24;9.20;;;3.10;;
33347;SDS011;19707;51.158;17.124;2023-05-24T15:57:27;8.50;;;2.70;;
33347;SDS011;19707;51.158;17.124;2023-05-24T16:00:29;8.90;;;3.30;;
33347;SDS011;19707;51.158;17.124;2023-05-24T16:03:31;9.40;;;2.90;;
33347;SDS011;19707;51.158;17.124;2023-05-24T16:06:33;11.90;;;3.50;;
33347;SDS011;19707;51.158;17.124;2023-05-24T16:09:37;6.90;;;2.90;;
33347;SDS011;19707;51.158;17.124;2023-05-24T16:12:39;10.60;;;3.20;;
33347;SDS011;19707;51.158;17.124;2023-05-24T16:15:42;8.50;;;3.30;;
33347;SDS011;19707;51.158;17.124;2023-05-24T16:18:48;6.50;;;3.00;;
33347;SDS011;19707;51.158;17.124;2023-05-24T16:21:50;4.40;;;2.70;;
33347;SDS011;19707;51.158;17.124;2023-05-24T16:24:53;6.00;;;2.50;;
33347;SDS011;19707;51.158;17.124;2023-05-24T16:27:55;5.20;;;3.80;;
33347;SDS011;19707;51.158;17.124;2023-05-24T16:30:57;5.70;;;2.50;;
33347;SDS011;19707;51.158;17.124;2023-05-24T16:34:01;6.60;;;2.80;;
33347;SDS011;19707;51.158;17.124;2023-05-24T16:37:03;7.10;;;2.90;;
33347;SDS011;19707;51.158;17.124;2023-05-24T16:40:05;7.20;;;3.20;;
33347;SDS011;19707;51.158;17.124;2023-05-24T16:43:08;9.50;;;2.80;;
33347;SDS011;19707;51.158;17.124;2023-05-24T16:46:11;10.70;;;4.20;;
33347;SDS011;19707;51.158;17.124;2023-05-24T16:49:13;8.50;;;3.60;;
33347;SDS011;19707;51.158;17.124;2023-05-24T16:52:16;6.00;;;3.30;;
33347;SDS011;19707;51.158;17.124;2023-05-24T16:55:18;5.80;;;3.10;;
33347;SDS011;19707;51.158;17.124;2023-05-24T16:58:21;5.90;;;3.20;;
33347;SDS011;19707;51.158;17.124;2023-05-24T17:01:24;3.80;;;2.50;;
33347;SDS011;19707;51.158;17.124;2023-05-24T17:04:27;7.90;;;3.40;;
33347;SDS011;19707;51.158;17.124;2023-05-24T17:07:33;5.20;;;3.00;;
33347;SDS011;19707;51.158;17.124;2023-05-24T17:10:35;9.50;;;3.20;;
33347;SDS011;19707;51.158;17.124;2023-05-24T17:13:37;7.30;;;3.30;;
33347;SDS011;19707;51.158;17.124;2023-05-24T17:16:40;11.20;;;3.50;;
33347;SDS011;19707;51.158;17.124;2023-05-24T17:19:42;10.60;;;4.10;;
33347;SDS011;19707;51.158;17.124;2023-05-24T17:22:44;10.90;;;3.60;;
33347;SDS011;19707;51.158;17.124;2023-05-24T17:25:47;8.40;;;3.10;;
33347;SDS011;19707;51.158;17.124;2023-05-24T17:28:50;8.00;;;3.50;;
33347;SDS011;19707;51.158;17.124;2023-05-24T17:31:53;12.90;;;3.80;;
33347;SDS011;19707;51.158;17.124;2023-05-24T17:34:55;13.60;;;3.60;;
33347;SDS011;19707;51.158;17.124;2023-05-24T17:37:58;12.30;;;3.60;;
33347;SDS011;19707;51.158;17.124;2023-05-24T17:41:00;9.30;;;3.90;;
33347;SDS011;19707;51.158;17.124;2023-05-24T17:44:02;8.30;;;3.30;;
33347;SDS011;19707;51.158;17.124;2023-05-24T17:47:06;9.80;;;3.90;;
33347;SDS011;19707;51.158;17.124;2023-05-24T17:50:08;11.00;;;3.90;;
33347;SDS011;19707;51.158;17.124;2023-05-24T17:53:11;11.50;;;3.90;;
33347;SDS011;19707;51.158;17.124;2023-05-24T17:56:13;15.10;;;4.20;;
33347;SDS011;19707;51.158;17.124;2023-05-24T17:59:16;10.70;;;4.20;;
33347;SDS011;19707;51.158;17.124;2023-05-24T18:02:19;8.80;;;3.20;;
33347;SDS011;19707;51.158;17.124;2023-05-24T18:05:22;11.60;;;3.40;;
33347;SDS011;19707;51.158;17.124;2023-05-24T18:08:26;10.00;;;4.10;;
33347;SDS011;19707;51.158;17.124;2023-05-24T18:11:28;7.70;;;3.20;;
33347;SDS011;19707;51.158;17.124;2023-05-24T18:14:31;7.70;;;3.10;;